createdAt,value
2018-05-03T00:01:50.029Z,10.03
2018-05-03T00:04:16.880Z,10.67
2018-05-03T00:06:43.771Z,9.97
2018-05-03T00:09:10.607Z,11.53
2018-05-03T00:11:37.486Z,11.70
2018-05-03T00:14:04.332Z,8.87
2018-05-03T00:16:31.271Z,9.53
2018-05-03T00:18:58.119Z,7.50
2018-05-03T00:21:24.977Z,8.30
2018-05-03T00:23:51.864Z,9.27
2018-05-03T00:26:19.451Z,8.10
2018-05-03T00:28:46.436Z,9.93
2018-05-03T00:31:13.308Z,9.17
2018-05-03T00:33:40.187Z,9.97
2018-05-03T00:36:07.077Z,9.97
2018-05-03T00:38:33.927Z,8.90
2018-05-03T00:41:00.934Z,8.53
2018-05-03T00:43:27.776Z,9.27
2018-05-03T00:45:54.620Z,7.77
2018-05-03T00:48:21.521Z,10.13
2018-05-03T00:50:49.166Z,10.53
2018-05-03T00:53:16.417Z,9.13
2018-05-03T00:55:43.261Z,12.23
2018-05-03T00:58:10.987Z,9.27
2018-05-03T01:00:37.984Z,9.73
2018-05-03T01:03:04.852Z,8.57
2018-05-03T01:05:32.442Z,9.43
2018-05-03T01:07:59.384Z,8.90
2018-05-03T01:10:26.258Z,8.87
2018-05-03T01:12:53.150Z,9.30
2018-05-03T01:15:20.750Z,9.03
2018-05-03T01:17:47.590Z,11.10
2018-05-03T01:20:14.544Z,8.43
2018-05-03T01:22:41.381Z,9.57
2018-05-03T01:25:08.555Z,10.57
2018-05-03T01:27:35.417Z,10.63
2018-05-03T01:30:02.325Z,10.57
2018-05-03T01:32:29.200Z,11.33
2018-05-03T01:35:14.278Z,10.33
2018-05-03T01:37:41.172Z,9.63
2018-05-03T01:40:08.015Z,9.67
2018-05-03T01:42:34.895Z,10.13
2018-05-03T01:45:01.738Z,9.13
2018-05-03T01:47:28.627Z,10.30
2018-05-03T01:49:56.242Z,11.40
2018-05-03T01:52:23.095Z,10.40
2018-05-03T01:54:49.979Z,10.10
2018-05-03T01:57:17.583Z,10.10
2018-05-03T01:59:44.506Z,9.67
2018-05-03T02:02:11.701Z,9.53
2018-05-03T02:04:38.563Z,8.50
2018-05-03T02:07:05.455Z,8.40
2018-05-03T02:09:32.387Z,10.53
2018-05-03T02:11:59.232Z,9.60
2018-05-03T02:14:26.115Z,8.77
2018-05-03T02:16:52.969Z,9.73
2018-05-03T02:19:19.869Z,9.83
2018-05-03T02:21:46.713Z,8.87
2018-05-03T02:24:13.567Z,9.70
2018-05-03T02:26:40.450Z,10.57
2018-05-03T02:29:07.300Z,10.60
2018-05-03T02:31:34.205Z,11.33
2018-05-03T02:34:01.088Z,11.43
2018-05-03T02:36:28.000Z,9.87
2018-05-03T02:38:54.891Z,10.37
2018-05-03T02:41:21.765Z,11.73
2018-05-03T02:43:49.398Z,15.17
2018-05-03T02:46:16.276Z,10.33
2018-05-03T02:48:43.864Z,10.33
2018-05-03T02:51:10.760Z,10.53
2018-05-03T02:53:38.349Z,11.50
2018-05-03T02:56:05.228Z,10.47
2018-05-03T03:01:57.758Z,13.07
2018-05-03T03:04:48.947Z,12.97
2018-05-03T03:14:40.699Z,12.43
2018-05-03T03:17:32.945Z,15.60
2018-05-03T03:20:21.901Z,13.90
2018-05-03T03:23:13.247Z,17.83
2018-05-03T03:29:29.268Z,15.47
2018-05-03T03:38:35.057Z,18.37
2018-05-03T03:41:20.236Z,20.77
2018-05-03T03:44:05.428Z,16.97
2018-05-03T03:46:33.028Z,16.37
2018-05-03T03:48:59.888Z,24.77
2018-05-03T03:51:28.533Z,21.00
2018-05-03T03:53:55.384Z,16.37
2018-05-03T03:56:22.261Z,18.43
2018-05-03T03:58:49.155Z,20.37
2018-05-03T04:01:16.827Z,19.47
2018-05-03T04:03:43.791Z,18.10
2018-05-03T04:06:10.675Z,16.53
2018-05-03T04:08:37.568Z,19.80
2018-05-03T04:11:05.188Z,15.23
2018-05-03T04:13:32.256Z,14.57
2018-05-03T04:15:59.109Z,12.13
2018-05-03T04:18:44.224Z,9.03
2018-05-03T04:21:29.299Z,11.27
2018-05-03T04:24:15.361Z,5.93
2018-05-03T04:26:42.996Z,9.80
2018-05-03T04:29:09.878Z,7.73
2018-05-03T04:31:36.730Z,7.80
2018-05-03T04:34:03.603Z,3.13
2018-05-03T04:36:30.493Z,4.27
2018-05-03T04:38:58.101Z,8.33
2018-05-03T04:41:25.375Z,4.33
2018-05-03T04:43:52.236Z,8.10
2018-05-03T04:46:19.085Z,7.97
2018-05-03T04:48:45.967Z,4.00
2018-05-03T04:51:12.871Z,6.67
2018-05-03T04:53:39.715Z,6.97
2018-05-03T04:56:06.570Z,4.47
2018-05-03T04:58:33.513Z,10.20
2018-05-03T05:01:00.744Z,3.30
2018-05-03T05:03:27.603Z,6.97
2018-05-03T05:05:54.449Z,6.20
2018-05-03T05:08:21.342Z,5.23
2018-05-03T05:10:48.191Z,9.40
2018-05-03T05:13:15.036Z,6.90
2018-05-03T05:15:41.981Z,7.33
2018-05-03T05:18:08.835Z,5.43
2018-05-03T05:20:35.685Z,6.27
2018-05-03T05:23:02.573Z,8.73
2018-05-03T05:25:29.468Z,9.63
2018-05-03T05:27:56.360Z,4.80
2018-05-03T05:30:23.205Z,4.70
2018-05-03T05:32:50.444Z,4.37
2018-05-03T05:35:17.308Z,10.03
2018-05-03T05:37:44.162Z,4.43
2018-05-03T05:40:11.859Z,7.23
2018-05-03T05:42:38.786Z,5.57
2018-05-03T05:45:06.374Z,6.90
2018-05-03T05:47:33.552Z,6.87
2018-05-03T05:50:00.392Z,4.73
2018-05-03T05:52:27.244Z,7.30
2018-05-03T05:54:54.143Z,10.47
2018-05-03T05:57:21.033Z,6.47
2018-05-03T05:59:47.875Z,4.97
2018-05-03T06:02:14.765Z,3.87
2018-05-03T06:04:41.665Z,5.43
2018-05-03T06:07:08.524Z,9.20
2018-05-03T06:09:35.408Z,6.33
2018-05-03T06:12:02.297Z,7.47
2018-05-03T06:14:29.155Z,3.27
2018-05-03T06:16:56.045Z,5.17
2018-05-03T06:19:22.887Z,8.17
2018-05-03T06:21:50.528Z,8.17
2018-05-03T06:24:18.135Z,6.00
2018-05-03T06:26:44.979Z,4.80
2018-05-03T06:29:11.894Z,4.30
2018-05-03T06:31:39.515Z,5.67
2018-05-03T06:34:06.361Z,7.40
2018-05-03T06:36:33.276Z,8.03
2018-05-03T06:39:00.134Z,8.13
2018-05-03T06:41:26.993Z,2.80
2018-05-03T06:43:53.905Z,4.37
2018-05-03T06:46:20.759Z,8.30
2018-05-03T06:48:47.683Z,3.97
2018-05-03T06:51:14.537Z,3.97
2018-05-03T06:53:41.722Z,6.93
2018-05-03T06:56:08.568Z,8.57
2018-05-03T06:58:35.582Z,7.70
2018-05-03T07:01:02.454Z,5.90
2018-05-03T07:03:29.321Z,6.67
2018-05-03T07:05:56.476Z,5.47
2018-05-03T07:08:23.324Z,5.53
2018-05-03T07:10:50.228Z,6.63
2018-05-03T07:13:17.112Z,8.07
2018-05-03T07:15:43.992Z,2.90
2018-05-03T07:18:10.966Z,4.83
2018-05-03T07:20:37.865Z,4.63
2018-05-03T07:23:05.456Z,4.47
2018-05-03T07:25:32.380Z,2.90
2018-05-03T07:27:59.965Z,2.60
2018-05-03T07:30:26.865Z,6.77
2018-05-03T07:32:53.745Z,7.50
2018-05-03T07:35:20.648Z,4.60
2018-05-03T07:37:47.984Z,8.53
2018-05-03T07:40:14.836Z,4.20
2018-05-03T07:42:41.673Z,3.63
2018-05-03T07:45:08.621Z,6.47
2018-05-03T07:47:36.249Z,5.33
2018-05-03T07:50:03.213Z,3.00
2018-05-03T07:52:30.058Z,5.63
2018-05-03T07:54:56.961Z,2.80
2018-05-03T07:57:24.554Z,4.27
2018-05-03T07:59:51.411Z,6.43
2018-05-03T08:02:18.363Z,6.47
2018-05-03T08:04:45.208Z,4.93
2018-05-03T08:07:12.052Z,4.00
2018-05-03T08:09:39.075Z,2.93
2018-05-03T08:12:05.915Z,5.00
2018-05-03T08:14:32.829Z,4.13
2018-05-03T08:16:59.768Z,5.97
2018-05-03T08:19:26.647Z,4.10
2018-05-03T08:21:54.232Z,1.87
2018-05-03T08:24:21.133Z,4.67
2018-05-03T08:26:48.764Z,4.07
2018-05-03T08:29:15.604Z,5.17
2018-05-03T08:31:42.505Z,2.93
2018-05-03T08:34:09.340Z,4.70
2018-05-03T08:36:37.237Z,2.57
2018-05-03T08:39:04.931Z,4.57
2018-05-03T08:41:31.776Z,5.40
2018-05-03T08:43:58.705Z,4.90
2018-05-03T08:46:25.611Z,5.40
2018-05-03T08:48:52.501Z,4.97
2018-05-03T08:51:19.337Z,6.77
2018-05-03T08:53:46.179Z,5.13
2018-05-03T08:56:13.093Z,5.23
2018-05-03T08:58:39.991Z,2.40
2018-05-03T09:01:06.932Z,4.07
2018-05-03T09:03:33.789Z,3.73
2018-05-03T09:06:00.664Z,2.33
2018-05-03T09:08:28.302Z,7.03
2018-05-03T09:10:55.159Z,1.37
2018-05-03T09:13:22.063Z,5.67
2018-05-03T09:15:48.920Z,2.50
2018-05-03T09:18:15.993Z,3.70
2018-05-03T09:20:43.014Z,6.60
2018-05-03T09:23:09.900Z,4.03
2018-05-03T09:25:37.556Z,2.57
2018-05-03T09:28:04.412Z,2.67
2018-05-03T09:30:32.004Z,4.93
2018-05-03T09:32:59.131Z,4.57
2018-05-03T09:35:26.715Z,5.30
2018-05-03T09:37:53.599Z,6.57
2018-05-03T09:40:20.499Z,3.80
2018-05-03T09:42:47.339Z,3.53
2018-05-03T09:45:14.547Z,4.67
2018-05-03T09:47:41.445Z,7.03
2018-05-03T09:50:08.289Z,4.93
2018-05-03T09:52:35.445Z,3.13
2018-05-03T09:55:02.274Z,3.13
2018-05-03T09:57:29.139Z,2.47
2018-05-03T09:59:56.037Z,6.37
2018-05-03T10:02:22.922Z,6.60
2018-05-03T10:04:49.986Z,3.80
2018-05-03T10:07:16.779Z,3.53
2018-05-03T10:09:44.372Z,3.93
2018-05-03T10:12:11.280Z,3.47
2018-05-03T10:14:38.925Z,4.47
2018-05-03T10:17:05.780Z,4.83
2018-05-03T10:19:32.671Z,3.27
2018-05-03T10:21:59.577Z,5.50
2018-05-03T10:24:26.431Z,4.67
2018-05-03T10:26:53.323Z,6.37
2018-05-03T10:29:20.211Z,4.47
2018-05-03T10:31:47.064Z,2.50
2018-05-03T10:34:14.701Z,7.17
2018-05-03T10:36:41.543Z,3.90
2018-05-03T10:39:08.477Z,4.83
2018-05-03T10:41:35.324Z,4.47
2018-05-03T10:44:02.190Z,5.83
2018-05-03T10:46:29.090Z,4.43
2018-05-03T10:48:55.983Z,2.50
2018-05-03T10:51:22.879Z,4.00
2018-05-03T10:53:49.736Z,5.30
2018-05-03T10:56:16.571Z,4.10
2018-05-03T10:58:43.591Z,3.07
2018-05-03T11:01:11.200Z,3.23
2018-05-03T11:03:38.407Z,6.07
2018-05-03T11:06:06.039Z,1.57
2018-05-03T11:08:32.900Z,4.43
2018-05-03T11:11:00.554Z,8.07
2018-05-03T11:13:27.412Z,4.47
2018-05-03T11:15:55.059Z,6.57
2018-05-03T11:18:21.908Z,3.83
2018-05-03T11:20:48.750Z,6.07
2018-05-03T11:23:15.668Z,4.03
2018-05-03T11:25:42.520Z,6.03
2018-05-03T11:28:09.367Z,6.03
2018-05-03T11:30:36.291Z,5.93
2018-05-03T11:33:03.152Z,3.30
2018-05-03T11:35:30.037Z,5.93
2018-05-03T11:37:57.629Z,2.80
2018-05-03T11:40:25.433Z,8.03
2018-05-03T11:42:52.513Z,4.43
2018-05-03T11:45:20.104Z,5.07
2018-05-03T11:47:47.137Z,4.60
2018-05-03T11:50:14.040Z,5.23
2018-05-03T11:52:40.877Z,3.00
2018-05-03T11:55:07.785Z,3.87
2018-05-03T11:57:34.641Z,4.10
2018-05-03T12:00:01.499Z,6.43
2018-05-03T12:02:28.419Z,6.67
2018-05-03T12:04:55.363Z,5.40
2018-05-03T12:07:22.245Z,5.30
2018-05-03T12:09:49.146Z,6.33
2018-05-03T12:12:15.999Z,4.87
2018-05-03T12:14:53.572Z,5.70
2018-05-03T12:17:21.168Z,4.57
2018-05-03T12:19:49.176Z,5.03
2018-05-03T12:22:17.755Z,3.73
2018-05-03T12:24:44.996Z,6.70
2018-05-03T12:27:12.727Z,5.43
2018-05-03T12:29:40.992Z,4.93
2018-05-03T12:32:09.134Z,3.33
2018-05-03T12:34:36.161Z,4.80
2018-05-03T12:37:03.061Z,3.93
2018-05-03T12:39:30.653Z,4.87
2018-05-03T12:41:57.584Z,6.37
2018-05-03T12:44:24.473Z,3.27
2018-05-03T12:46:51.320Z,6.77
2018-05-03T12:49:18.320Z,5.70
2018-05-03T12:51:45.244Z,5.00
2018-05-03T12:54:12.074Z,4.43
2018-05-03T12:56:38.954Z,4.70
2018-05-03T12:59:05.855Z,3.07
2018-05-03T13:01:32.750Z,5.07
2018-05-03T13:03:59.605Z,4.20
2018-05-03T13:06:26.479Z,3.60
2018-05-03T13:08:53.377Z,3.60
2018-05-03T13:11:20.300Z,2.43
2018-05-03T13:13:48.120Z,3.83
2018-05-03T13:16:15.003Z,4.10
2018-05-03T13:18:41.887Z,4.97
2018-05-03T13:21:08.719Z,7.40
2018-05-03T13:23:35.656Z,3.40
2018-05-03T13:26:03.264Z,2.37
2018-05-03T13:28:30.125Z,3.60
2018-05-03T13:30:57.030Z,3.17
2018-05-03T13:33:23.990Z,2.93
2018-05-03T13:35:51.120Z,3.47
2018-05-03T13:38:17.987Z,4.30
2018-05-03T13:40:44.871Z,6.30
2018-05-03T13:43:11.794Z,3.50
2018-05-03T13:45:38.770Z,4.90
2018-05-03T13:48:05.701Z,6.33
2018-05-03T13:50:32.594Z,6.50
2018-05-03T13:52:59.443Z,4.40
2018-05-03T13:55:26.677Z,5.77
2018-05-03T13:57:53.483Z,3.93
2018-05-03T14:00:20.320Z,7.13
2018-05-03T14:02:47.220Z,4.70
2018-05-03T14:05:14.858Z,6.30
2018-05-03T14:07:41.695Z,4.93
2018-05-03T14:10:08.537Z,8.43
2018-05-03T14:12:35.411Z,4.80
2018-05-03T14:15:02.300Z,6.80
2018-05-03T14:17:29.223Z,5.43
2018-05-03T14:19:56.119Z,10.17
2018-05-03T14:22:23.005Z,5.77
2018-05-03T14:24:49.938Z,5.37
2018-05-03T14:27:17.597Z,4.70
2018-05-03T14:29:45.163Z,9.83
2018-05-03T14:32:12.802Z,8.17
2018-05-03T14:34:40.036Z,6.30
2018-05-03T14:37:06.885Z,6.07
2018-05-03T14:39:33.727Z,5.03
2018-05-03T14:42:00.601Z,8.00
2018-05-03T14:44:27.481Z,6.40
2018-05-03T14:46:54.336Z,5.60
2018-05-03T14:49:21.215Z,4.93
2018-05-03T14:51:48.057Z,2.83
2018-05-03T14:54:14.933Z,4.73
2018-05-03T14:56:42.535Z,9.00
2018-05-03T14:59:09.476Z,8.23
2018-05-03T15:01:36.317Z,7.17
2018-05-03T15:04:03.214Z,8.00
2018-05-03T15:06:30.142Z,5.60
2018-05-03T15:08:56.981Z,6.00
2018-05-03T15:11:23.833Z,5.93
2018-05-03T15:13:51.289Z,6.50
2018-05-03T15:16:18.271Z,6.37
2018-05-03T15:18:45.032Z,3.87
2018-05-03T15:21:12.181Z,6.50
2018-05-03T15:23:39.659Z,3.80
2018-05-03T15:26:07.352Z,9.27
2018-05-03T15:28:35.017Z,6.23
2018-05-03T15:31:01.878Z,5.17
2018-05-03T15:33:28.805Z,4.83
2018-05-03T15:35:55.686Z,4.73
2018-05-03T15:38:22.523Z,8.33
2018-05-03T15:40:50.104Z,4.87
2018-05-03T15:43:17.159Z,6.27
2018-05-03T15:45:43.993Z,7.97
2018-05-03T15:48:11.627Z,7.57
2018-05-03T15:50:38.475Z,7.63
2018-05-03T15:53:05.356Z,7.47
2018-05-03T15:55:32.199Z,3.07
2018-05-03T15:57:59.048Z,4.00
2018-05-03T16:00:25.944Z,3.70
2018-05-03T16:02:52.852Z,4.57
2018-05-03T16:05:19.699Z,3.83
2018-05-03T16:07:46.879Z,8.63
2018-05-03T16:10:13.728Z,4.10
2018-05-03T16:12:40.571Z,8.30
2018-05-03T16:15:07.463Z,18.97
2018-05-03T16:17:34.384Z,6.23
2018-05-03T16:20:01.220Z,5.80
2018-05-03T16:22:28.092Z,8.67
2018-05-03T16:24:54.941Z,8.40
2018-05-03T16:27:21.889Z,7.53
2018-05-03T16:29:49.067Z,4.47
2018-05-03T16:32:15.927Z,4.60
2018-05-03T16:34:42.812Z,3.93
2018-05-03T16:37:10.456Z,9.03
2018-05-03T16:39:37.349Z,6.87
2018-05-03T16:42:04.278Z,4.07
2018-05-03T16:44:31.178Z,5.80
2018-05-03T16:46:58.063Z,11.03
2018-05-03T16:49:25.741Z,6.87
2018-05-03T16:51:53.312Z,4.63
2018-05-03T16:54:20.153Z,3.57
2018-05-03T16:56:47.056Z,6.03
2018-05-03T16:59:13.941Z,6.83
2018-05-03T17:01:40.827Z,6.23
2018-05-03T17:04:07.677Z,4.03
2018-05-03T17:06:34.585Z,4.60
2018-05-03T17:09:01.480Z,5.97
2018-05-03T17:11:28.315Z,5.37
2018-05-03T17:13:55.452Z,7.30
2018-05-03T17:16:22.295Z,5.97
2018-05-03T17:18:49.139Z,6.80
2018-05-03T17:21:16.790Z,8.93
2018-05-03T17:23:43.728Z,6.20
2018-05-03T17:26:10.563Z,5.67
2018-05-03T17:28:37.411Z,6.37
2018-05-03T17:31:04.326Z,3.77
2018-05-03T17:33:31.277Z,3.63
2018-05-03T17:35:58.940Z,4.00
2018-05-03T17:38:26.560Z,6.73
2018-05-03T17:40:53.872Z,5.73
2018-05-03T17:43:20.710Z,3.70
2018-05-03T17:45:47.551Z,4.57
2018-05-03T17:48:14.448Z,3.93
2018-05-03T17:50:41.344Z,6.37
2018-05-03T17:53:08.187Z,4.90
2018-05-03T17:55:35.807Z,4.53
2018-05-03T17:58:02.680Z,3.60
2018-05-03T18:00:30.312Z,2.77
2018-05-03T18:02:57.165Z,5.60
2018-05-03T18:05:24.019Z,4.70
2018-05-03T18:07:50.910Z,5.20
2018-05-03T18:10:17.787Z,5.23
2018-05-03T18:12:44.628Z,5.70
2018-05-03T18:15:11.885Z,4.47
2018-05-03T18:17:38.723Z,5.03
2018-05-03T18:20:05.568Z,5.77
2018-05-03T18:22:32.435Z,2.60
2018-05-03T18:24:59.271Z,2.73
2018-05-03T18:27:26.155Z,3.00
2018-05-03T18:29:53.776Z,5.17
2018-05-03T18:32:20.661Z,5.17
2018-05-03T18:34:48.293Z,3.03
2018-05-03T18:37:15.484Z,6.60
2018-05-03T18:39:42.355Z,5.03
2018-05-03T18:42:09.194Z,4.73
2018-05-03T18:44:36.368Z,6.40
2018-05-03T18:47:03.239Z,7.43
2018-05-03T18:49:30.144Z,7.03
2018-05-03T18:51:57.769Z,5.60
2018-05-03T18:54:25.499Z,4.23
2018-05-03T18:56:52.400Z,7.93
2018-05-03T18:59:19.293Z,7.13
2018-05-03T19:01:46.186Z,3.87
2018-05-03T19:04:13.023Z,5.07
2018-05-03T19:06:40.216Z,13.07
2018-05-03T19:09:07.048Z,3.67
2018-05-03T19:11:33.940Z,4.90
2018-05-03T19:14:00.858Z,6.03
2018-05-03T19:16:27.760Z,5.67
2018-05-03T19:18:54.604Z,4.13
2018-05-03T19:21:21.488Z,3.43
2018-05-03T19:23:48.433Z,2.33
2018-05-03T19:26:15.253Z,4.17
2018-05-03T19:28:42.153Z,5.73
2018-05-03T19:31:09.736Z,5.83
2018-05-03T19:33:36.572Z,3.97
2018-05-03T19:36:04.216Z,4.33
2018-05-03T19:38:31.054Z,2.50
2018-05-03T19:40:58.086Z,3.17
2018-05-03T19:43:24.988Z,3.37
2018-05-03T19:45:51.877Z,3.50
2018-05-03T19:48:18.767Z,3.90
2018-05-03T19:50:46.382Z,7.37
2018-05-03T19:53:13.244Z,4.93
2018-05-03T19:55:40.157Z,5.37
2018-05-03T19:58:07.057Z,7.13
2018-05-03T20:00:34.704Z,4.83
2018-05-03T20:03:01.649Z,3.27
2018-05-03T20:05:28.496Z,5.60
2018-05-03T20:07:56.092Z,5.07
2018-05-03T20:10:22.979Z,6.73
2018-05-03T20:12:49.839Z,7.53
2018-05-03T20:15:16.778Z,5.77
2018-05-03T20:17:43.717Z,12.23
2018-05-03T20:20:11.589Z,4.77
2018-05-03T20:22:38.458Z,4.93
2018-05-03T20:25:06.043Z,2.90
2018-05-03T20:27:32.973Z,7.53
2018-05-03T20:30:00.583Z,3.67
2018-05-03T20:32:27.484Z,4.00
2018-05-03T20:34:54.639Z,13.43
2018-05-03T20:37:21.484Z,5.70
2018-05-03T20:39:49.075Z,4.73
2018-05-03T20:42:16.012Z,7.93
2018-05-03T20:44:42.876Z,4.50
2018-05-03T20:47:09.746Z,4.10
2018-05-03T20:49:36.657Z,5.33
2018-05-03T20:52:03.549Z,5.10
2018-05-03T20:54:31.159Z,9.60
2018-05-03T20:56:58.039Z,6.03
2018-05-03T20:59:24.970Z,7.13
2018-05-03T21:01:51.874Z,6.37
2018-05-03T21:04:19.469Z,7.47
2018-05-03T21:06:46.310Z,5.90
2018-05-03T21:09:13.212Z,5.70
2018-05-03T21:11:40.813Z,4.73
2018-05-03T21:14:07.707Z,5.77
2018-05-03T21:16:34.607Z,6.03
2018-05-03T21:19:01.480Z,10.33
2018-05-03T21:21:28.372Z,5.67
2018-05-03T21:23:55.231Z,6.60
2018-05-03T21:26:22.097Z,4.53
2018-05-03T21:28:48.995Z,6.20
2018-05-03T21:31:16.626Z,5.57
2018-05-03T21:33:43.542Z,5.23
2018-05-03T21:36:10.471Z,4.77
2018-05-03T21:38:37.359Z,5.90
2018-05-03T21:41:04.199Z,7.17
2018-05-03T21:43:31.617Z,6.20
2018-05-03T21:45:58.827Z,6.50
2018-05-03T21:48:26.451Z,7.47
2018-05-03T21:50:53.500Z,8.30
2018-05-03T21:53:20.393Z,5.83
2018-05-03T21:55:47.245Z,5.23
2018-05-03T21:58:14.915Z,10.33
2018-05-03T22:00:42.523Z,5.73
2018-05-03T22:03:09.404Z,5.90
2018-05-03T22:05:36.340Z,3.53
2018-05-03T22:08:03.265Z,4.53
2018-05-03T22:10:30.189Z,5.10
2018-05-03T22:12:57.049Z,6.77
2018-05-03T22:15:23.891Z,3.33
2018-05-03T22:17:50.816Z,5.30
2018-05-03T22:20:17.675Z,5.47
2018-05-03T22:22:44.560Z,4.13
2018-05-03T22:25:11.416Z,7.93
2018-05-03T22:27:38.306Z,6.33
2018-05-03T22:30:05.148Z,3.60
2018-05-03T22:32:31.985Z,6.37
2018-05-03T22:34:58.885Z,6.43
2018-05-03T22:37:25.825Z,5.50
2018-05-03T22:39:52.679Z,9.50
2018-05-03T22:42:19.570Z,5.73
2018-05-03T22:44:46.416Z,8.17
2018-05-03T22:47:13.295Z,5.63
2018-05-03T22:49:40.168Z,6.07
2018-05-03T22:52:07.041Z,6.23
2018-05-03T22:54:33.931Z,4.13
2018-05-03T22:57:00.772Z,5.03
2018-05-03T22:59:27.664Z,4.63
2018-05-03T23:01:55.538Z,9.50
2018-05-03T23:04:22.420Z,7.60
2018-05-03T23:06:49.316Z,5.33
2018-05-03T23:09:16.913Z,8.47
2018-05-03T23:11:43.812Z,5.83
2018-05-03T23:14:11.513Z,5.97
2018-05-03T23:16:38.389Z,6.57
2018-05-03T23:19:05.239Z,6.30
2018-05-03T23:21:32.206Z,4.53
2018-05-03T23:23:59.035Z,7.43
2018-05-03T23:26:25.904Z,7.30
2018-05-03T23:28:53.523Z,5.20
2018-05-03T23:31:20.395Z,7.27
2018-05-03T23:33:47.316Z,10.20
2018-05-03T23:36:14.159Z,9.17
2018-05-03T23:38:41.100Z,9.67
2018-05-03T23:41:07.990Z,7.77
2018-05-03T23:43:35.575Z,5.57
2018-05-03T23:46:06.699Z,9.17
2018-05-03T23:48:34.288Z,5.07
2018-05-03T23:51:01.145Z,6.43
2018-05-03T23:53:28.790Z,10.10
2018-05-03T23:55:55.643Z,7.43
2018-05-03T23:58:22.535Z,9.13
